• Join FlightAware (Why Join?)
  • Login
  • US Flag 
07:21PM EST


 

Airport Tracker/Info


-or-


 

Live Flight TrackerFlight Track Log ✈ AAL1870 ✈ 30-Apr-2013 ✈ KLAX - KORD

Flight Track Log - Related Links

Times and Time Zones

All times are in EDT time to prevent confusion due to time zone crossing. See the AAL1870 flight status page for this flight to view local times or setup timezone preferences in your user account.

Time Position Orientation Groundspeed Altitude Reporting Facility
EDT Latitude Longitude Course Direction KTS MPH feet Rate Location/Type
08:34PM 33.9360 -118.4250 265° West 160 184 1,000  Level FlightAware
08:34PM 33.9340 -118.4440 263° West 171 197 1,700 1,440 Climbing FlightAware
08:34PM 33.9320 -118.4660 264° West 198 228 2,100 1,080 Climbing FlightAware
08:35PM 33.9220 -118.4980 249° West 240 276 2,700 1,800 Climbing FlightAware
08:35PM 33.9110 -118.5360 251° West 256 295 3,900 2,520 Climbing FlightAware
08:36PM 33.9050 -118.5470 237° Southwest 250 288 4,400 3,120 Climbing FlightAware
08:36PM 33.8900 -118.5580 211° Southwest 248 285 5,200 2,760 Climbing FlightAware
08:36PM 33.8770 -118.5600 187° South 257 296 5,800 3,120 Climbing FlightAware
08:36PM 33.8420 -118.5220 138° Southeast 289 333 7,300 3,480 Climbing FlightAware
08:37PM 33.8580 -118.4770 67° East 273 314 9,000 2,700 Climbing FlightAware
08:38PM 33.9100 -118.4450 27° Northeast 299 344 10,700 2,220 Climbing FlightAware
08:38PM 33.9550 -118.3940 43° Northeast 332 382 12,200 2,280 Climbing FlightAware
08:39PM 33.9920 -118.3300 55° Northeast 349 402 14,000 2,460 Climbing FlightAware
08:40PM 34.0350 -118.2520 56° Northeast 383 441 15,700 2,520 Climbing FlightAware
08:40PM 34.0710 -118.1880 56° Northeast 397 457 17,400 2,760 Climbing FlightAware
08:41PM 34.1130 -118.1140 56° Northeast 408 470 19,200 2,700 Climbing FlightAware
08:42PM 34.1690 -118.0160 55° Northeast 422 486 21,300 2,460 Climbing FlightAware
08:43PM 34.2140 -117.9360 56° Northeast 429 494 22,900 2,220 Climbing FlightAware
08:43PM 34.2650 -117.8450 56° Northeast 441 507 24,500 2,100 Climbing FlightAware
08:44PM 34.3120 -117.7610 56° Northeast 449 517 25,900 1,920 Climbing FlightAware
08:45PM 34.3630 -117.6690 56° Northeast 456 525 27,300 1,800 Climbing FlightAware
08:45PM 34.4100 -117.5850 56° Northeast 461 531 28,500 1,680 Climbing FlightAware
08:46PM 34.4580 -117.4980 56° Northeast 465 535 29,600 1,860 Climbing FlightAware
08:47PM 34.5110 -117.4030 56° Northeast 460 529 31,200 1,920 Climbing FlightAware
08:47PM 34.5600 -117.3150 56° Northeast 457 526 32,400 1,680 Climbing FlightAware
08:49PM 34.6500 -117.1810 51° Northeast 455 524 34,300 1,560 Climbing FlightAware
08:49PM 34.7150 -117.0920 48° Northeast 457 526 35,400 1,380 Climbing FlightAware
08:50PM 34.7700 -117.0160 49° Northeast 457 526 36,300 1,440 Climbing FlightAware
08:51PM 34.8170 -116.9510 49° Northeast 454 522 37,200 1,500 Climbing FlightAware
08:51PM 34.8810 -116.8630 48° Northeast 446 513 38,300 1,020 Climbing FlightAware
08:52PM 34.9600 -116.7520 49° Northeast 443 510 39,000 420 Climbing FlightAware
08:53PM 35.0140 -116.6770 49° Northeast 441 507 39,000  Level FlightAware
08:54PM 35.0670 -116.6040 48° Northeast 438 504 39,000  Level FlightAware
08:54PM 35.1300 -116.5150 49° Northeast 439 505 39,000  Level FlightAware
08:55PM 35.1870 -116.4380 48° Northeast 440 506 39,000  Level FlightAware
08:56PM 35.2330 -116.3750 48° Northeast 440 506 39,000  Level FlightAware
08:57PM 35.2790 -116.3120 48° Northeast 440 506 39,000  Level FlightAware
08:57PM 35.3260 -116.2490 48° Northeast 440 506 39,000  Level FlightAware
08:58PM 35.4110 -116.1190 51° Northeast 446 513 39,000  Level FlightAware
08:59PM 35.4730 -116.0320 49° Northeast 448 516 39,000  Level FlightAware
08:59PM 35.5260 -115.9570 49° Northeast 448 516 39,000  Level FlightAware
09:00PM 35.5820 -115.8770 49° Northeast 448 516 39,000  Level FlightAware
09:01PM 35.6380 -115.7970 49° Northeast 450 518 39,000  Level FlightAware
09:01PM 35.6950 -115.7150 49° Northeast 451 519 39,000  Level FlightAware
09:02PM 35.7570 -115.6270 49° Northeast 451 519 39,000  Level FlightAware
09:03PM 35.8120 -115.5470 50° Northeast 449 517 39,000  Level FlightAware
09:04PM 35.8670 -115.4690 49° Northeast 449 517 39,000  Level FlightAware
09:04PM 35.9240 -115.3860 50° Northeast 448 516 39,000  Level FlightAware
09:05PM 35.9760 -115.3110 49° Northeast 448 516 39,000  Level FlightAware
09:06PM 36.0400 -115.2170 50° Northeast 453 521 39,000  Level FlightAware
09:06PM 36.0950 -115.1400 49° Northeast 454 522 39,000  Level FlightAware
09:07PM 36.1560 -115.0640 45° Northeast 456 525 39,000  Level FlightAware
09:08PM 36.2200 -114.9820 46° Northeast 456 525 39,000  Level FlightAware
09:08PM 36.2780 -114.9080 46° Northeast 458 527 39,000  Level FlightAware
09:09PM 36.3430 -114.8260 45° Northeast 460 529 39,000  Level FlightAware
09:10PM 36.4050 -114.7460 46° Northeast 464 534 39,000  Level FlightAware
09:11PM 36.4650 -114.6670 47° Northeast 469 540 39,000  Level FlightAware
09:11PM 36.5310 -114.5810 46° Northeast 469 540 39,000  Level FlightAware
09:12PM 36.5900 -114.5030 47° Northeast 468 539 39,000  Level FlightAware
09:13PM 36.6510 -114.4230 46° Northeast 471 542 39,000  Level FlightAware
09:13PM 36.7190 -114.3340 46° Northeast 473 544 39,000  Level FlightAware
09:14PM 36.7760 -114.2470 51° Northeast 480 552 39,000  Level FlightAware
09:15PM 36.8260 -114.1440 59° Northeast 484 557 39,000  Level FlightAware
09:15PM 36.8630 -114.0690 58° Northeast 484 557 39,000  Level FlightAware
09:16PM 36.9160 -113.9560 60° Northeast 485 558 39,000  Level FlightAware
09:17PM 36.9830 -113.8170 59° Northeast 484 557 39,000  Level FlightAware
09:18PM 37.0320 -113.7140 59° Northeast 482 555 39,000  Level FlightAware
09:19PM 37.0850 -113.6020 59° Northeast 480 552 39,000  Level FlightAware
09:19PM 37.1300 -113.5080 59° Northeast 481 554 39,000  Level FlightAware
09:20PM 37.1760 -113.4110 59° Northeast 482 555 39,000  Level FlightAware
09:21PM 37.2150 -113.3290 59° Northeast 482 555 39,000  Level FlightAware
09:21PM 37.2540 -113.2480 59° Northeast 482 555 39,000  Level FlightAware
09:22PM 37.2930 -113.1660 59° Northeast 482 555 39,000  Level FlightAware
09:23PM 37.3690 -113.0000 60° Northeast 480 552 39,000  Level FlightAware
09:23PM 37.4080 -112.9190 59° Northeast 480 552 39,000  Level FlightAware
09:24PM 37.4470 -112.8370 59° Northeast 480 552 39,000  Level FlightAware
09:25PM 37.4850 -112.7560 59° Northeast 480 552 39,000  Level FlightAware
09:25PM 37.5240 -112.6740 59° Northeast 480 552 39,000  Level FlightAware
09:26PM 37.5630 -112.5920 59° Northeast 480 552 39,000  Level FlightAware
09:27PM 37.6120 -112.4900 59° Northeast 480 552 39,000  Level FlightAware
09:28PM 37.6510 -112.4090 59° Northeast 480 552 39,000  Level FlightAware
09:28PM 37.6900 -112.3270 59° Northeast 480 552 39,000  Level FlightAware
09:29PM 37.7280 -112.2450 60° Northeast 480 552 39,000  Level FlightAware
09:30PM 37.7770 -112.1430 59° Northeast 480 552 39,000  Level FlightAware
09:30PM 37.8160 -112.0610 59° Northeast 480 552 39,000  Level FlightAware
09:31PM 37.8550 -111.9790 59° Northeast 480 552 39,000  Level FlightAware
09:32PM 37.8940 -111.8970 59° Northeast 480 552 39,000 1,560 Level FlightAware
09:32PM 38.0475 -111.6814 59° Northeast 470 541 40,900 2,220 Climbing Denver Center
09:33PM 38.0783 -111.6269 54° Northeast 472 543 41,000 60 Climbing Salt Lake Center
09:34PM 38.1567 -111.4894 54° Northeast 480 552 41,000  Level Salt Lake Center
09:35PM 38.2344 -111.3519 54° Northeast 480 552 41,000  Level Salt Lake Center
09:36PM 38.3114 -111.2161 54° Northeast 475 547 41,000  Level Salt Lake Center
09:37PM 38.3889 -111.0800 54° Northeast 476 548 41,000  Level Salt Lake Center
09:38PM 38.4728 -110.9289 55° Northeast 479 551 41,000  Level Salt Lake Center
09:39PM 38.5478 -110.7956 54° Northeast 482 555 41,000  Level Salt Lake Center
09:40PM 38.6219 -110.6608 55° Northeast 483 556 41,000  Level Salt Lake Center
09:41PM 38.6817 -110.5464 56° Northeast 485 558 41,000  Level Denver Center
09:41PM 38.7081 -110.5022 53° Northeast 485 558 41,000  Level Salt Lake Center
09:42PM 38.7828 -110.3669 55° Northeast 486 559 41,000  Level Salt Lake Center
09:43PM 38.8444 -110.2506 56° Northeast 490 564 41,000  Level Denver Center
09:44PM 38.9178 -110.1111 56° Northeast 493 567 41,000  Level Denver Center
09:44PM 38.9458 -110.0683 50° Northeast 492 566 41,000  Level Salt Lake Center
09:45PM 39.0222 -109.9275 55° Northeast 499 574 41,000  Level Salt Lake Center
09:46PM 39.0833 -109.8044 57° Northeast 505 581 41,000  Level Denver Center
09:47PM 39.1733 -109.6417 54° Northeast 500 575 41,000  Level Denver Center
09:47PM 39.1864 -109.6194 53° Northeast 501 577 41,000  Level Salt Lake Center
09:48PM 39.2750 -109.4528 55° Northeast 502 578 41,000  Level Salt Lake Center
09:49PM 39.3247 -109.3556 57° Northeast 504 580 41,000  Level Denver Center
09:50PM 39.4133 -109.1872 56° Northeast 506 582 41,000  Level Denver Center
09:51PM 39.4908 -109.0422 55° Northeast 511 588 41,000  Level Denver Center
09:52PM 39.5803 -108.8708 56° Northeast 515 593 41,000  Level Denver Center
09:53PM 39.6608 -108.7144 56° Northeast 522 601 41,000  Level Denver Center
09:54PM 39.7433 -108.5594 55° Northeast 521 600 41,000  Level Denver Center
09:55PM 39.8189 -108.4117 56° Northeast 516 594 41,000  Level Denver Center
10:00PM 40.1650 -107.5550 56° Northeast 527 606 41,000  Level FlightAware
10:01PM 40.1700 -107.4510 86° East 527 606 41,000  Level FlightAware
10:01PM 40.1780 -107.2840 86° East 516 594 41,000  Level FlightAware
10:02PM 40.1830 -107.1820 86° East 515 593 41,000  Level FlightAware
10:03PM 40.1910 -107.0210 86° East 514 592 41,000  Level FlightAware
10:04PM 40.1970 -106.8990 86° East 516 594 41,000  Level FlightAware
10:04PM 40.1983 -106.8620 87° East 516 594 41,000  Level FlightAware ADS-B
10:04PM 40.2020 -106.7760 87° East 508 585 41,000  Level FlightAware
10:05PM 40.2071 -106.6690 86° East 508 585 41,000  Level FlightAware ADS-B
10:06PM 40.2142 -106.5130 87° East 510 587 41,000  Level FlightAware ADS-B
10:06PM 40.2191 -106.3970 87° East 509 586 41,000  Level FlightAware ADS-B
10:07PM 40.2237 -106.2840 87° East 509 586 41,000  Level FlightAware ADS-B
10:07PM 40.2276 -106.1910 87° East 510 587 41,000  Level FlightAware ADS-B
10:08PM 40.2320 -106.0810 87° East 511 588 41,000  Level FlightAware ADS-B
10:08PM 40.2358 -105.9790 87° East 511 588 41,000  Level FlightAware ADS-B
10:09PM 40.2393 -105.8870 87° East 512 589 41,000  Level FlightAware ADS-B
10:10PM 40.2428 -105.7930 87° East 514 592 41,000  Level FlightAware ADS-B
10:10PM 40.2459 -105.6990 87° East 514 592 41,000  Level FlightAware ADS-B
10:11PM 40.2500 -105.5920 87° East 515 593 41,000  Level FlightAware ADS-B
10:11PM 40.2547 -105.4660 87° East 511 588 41,000  Level FlightAware ADS-B
10:12PM 40.2578 -105.3740 87° East 503 579 41,000  Level FlightAware ADS-B
10:12PM 40.2605 -105.2830 88° East 500 575 41,000  Level FlightAware ADS-B
10:13PM 40.2633 -105.1920 88° East 499 574 41,000  Level FlightAware ADS-B
10:13PM 40.2660 -105.1010 88° East 498 573 41,000  Level FlightAware ADS-B
10:14PM 40.2690 -105.0100 87° East 498 573 41,000  Level FlightAware ADS-B
10:14PM 40.2719 -104.9190 88° East 496 571 41,000  Level FlightAware ADS-B
10:15PM 40.2746 -104.8290 88° East 496 571 41,000  Level FlightAware ADS-B
10:15PM 40.2772 -104.7360 88° East 495 570 41,000  Level FlightAware ADS-B
10:16PM 40.2796 -104.6460 88° East 495 570 41,000  Level FlightAware ADS-B
10:16PM 40.2820 -104.5560 88° East 492 566 41,000  Level FlightAware ADS-B
10:17PM 40.2842 -104.4670 88° East 493 567 41,000  Level FlightAware ADS-B
10:17PM 40.2865 -104.3770 88° East 493 567 41,000  Level FlightAware ADS-B
10:18PM 40.2887 -104.2860 88° East 494 568 41,000  Level FlightAware ADS-B
10:18PM 40.2909 -104.1930 88° East 494 568 41,000  Level FlightAware ADS-B
10:19PM 40.2931 -104.1010 88° East 492 566 41,000  Level FlightAware ADS-B
10:19PM 40.2948 -104.0120 89° East 485 558 41,000  Level FlightAware ADS-B
10:20PM 40.2965 -103.9240 89° East 481 554 41,000  Level FlightAware ADS-B
10:20PM 40.2983 -103.8380 88° East 476 548 41,000  Level FlightAware ADS-B
10:21PM 40.3000 -103.7510 89° East 475 547 41,000  Level FlightAware ADS-B
10:21PM 40.3018 -103.6630 88° East 475 547 41,000  Level FlightAware ADS-B
10:22PM 40.3035 -103.5750 89° East 475 547 41,000  Level FlightAware ADS-B
10:22PM 40.3050 -103.4890 89° East 475 547 41,000  Level FlightAware ADS-B
10:23PM 40.3064 -103.4030 89° East 475 547 41,000  Level FlightAware ADS-B
10:23PM 40.3076 -103.3160 89° East 477 549 41,000  Level FlightAware ADS-B
10:24PM 40.3092 -103.2290 89° East 477 549 41,000  Level FlightAware ADS-B
10:24PM 40.3105 -103.1420 89° East 477 549 41,000  Level FlightAware ADS-B
10:25PM 40.3117 -103.0560 89° East 477 549 41,000  Level FlightAware ADS-B
10:25PM 40.3129 -102.9680 89° East 479 551 41,000  Level FlightAware ADS-B
10:26PM 40.3139 -102.8810 89° East 480 552 41,000  Level FlightAware ADS-B
10:26PM 40.3146 -102.7930 89° East 481 554 41,000  Level FlightAware ADS-B
10:27PM 40.3155 -102.7040 89° East 482 555 41,000  Level FlightAware ADS-B
10:27PM 40.3164 -102.6150 89° East 483 556 41,000  Level FlightAware ADS-B
10:28PM 40.3173 -102.5270 89° East 483 556 41,000  Level FlightAware ADS-B
10:28PM 40.3182 -102.4350 89° East 482 555 41,000  Level FlightAware ADS-B
10:29PM 40.3188 -102.3480 89° East 482 555 41,000  Level FlightAware ADS-B
10:29PM 40.3192 -102.2600 90° East 482 555 41,000  Level FlightAware ADS-B
10:30PM 40.3198 -102.1730 89° East 483 556 41,000  Level FlightAware ADS-B
10:30PM 40.3203 -102.0840 90° East 483 556 41,000  Level FlightAware ADS-B
10:31PM 40.3208 -101.9940 90° East 483 556 41,000  Level FlightAware ADS-B
10:31PM 40.3212 -101.9040 90° East 483 556 41,000  Level FlightAware ADS-B
10:32PM 40.3215 -101.8150 90° East 483 556 41,000  Level FlightAware ADS-B
10:32PM 40.3217 -101.7280 90° East 483 556 41,000  Level FlightAware ADS-B
10:33PM 40.3218 -101.6180 90° East 482 555 41,000  Level FlightAware ADS-B
10:34PM 40.3218 -101.5130 90° East 482 555 41,000  Level FlightAware ADS-B
10:34PM 40.3217 -101.4240 90° East 481 554 41,000  Level FlightAware ADS-B
10:35PM 40.3216 -101.3340 90° East 481 554 41,000  Level FlightAware ADS-B
10:35PM 40.3215 -101.2460 90° East 480 552 41,000  Level FlightAware ADS-B
10:36PM 40.3212 -101.1590 90° East 479 551 41,000  Level FlightAware ADS-B
10:36PM 40.3209 -101.0710 90° East 479 551 41,000  Level FlightAware ADS-B
10:37PM 40.3204 -100.9830 90° East 478 550 41,000  Level FlightAware ADS-B
10:37PM 40.3200 -100.8950 90° East 478 550 41,000  Level FlightAware ADS-B
10:38PM 40.3195 -100.7970 90° East 478 550 41,000  Level FlightAware ADS-B
10:38PM 40.3183 -100.7225 90° East 479 551 41,000  Level Denver Center
10:39PM 40.3172 -100.5581 90° East 476 548 41,000  Level Denver Center
10:40PM 40.3156 -100.3681 91° East 470 541 41,000  Level Denver Center
10:41PM 40.3136 -100.2053 91° East 469 540 41,000  Level Denver Center
10:42PM 40.3114 -100.0158 91° East 468 539 41,000  Level Denver Center
10:43PM 40.3092 -99.8689 91° East 455 524 41,000  Level Denver Center
10:44PM 40.3078 -99.7061 91° East 449 517 41,000  Level Denver Center
10:45PM 40.3039 -99.5439 92° East 447 514 41,000  Level Denver Center
10:47PM 40.3017 -99.3828 91° East 443 510 41,000  Level Denver Center
10:48PM 40.2983 -99.1911 91° East 442 509 41,000  Level Denver Center
10:49PM 40.2947 -99.0256 92° East 454 522 41,000  Level Denver Center
10:50PM 40.2906 -98.8622 92° East 452 520 41,000  Level Denver Center
10:50PM 40.2900 -98.8311 91° East 452 520 41,000  Level Minneapolis Center
10:51PM 40.2856 -98.6675 92° East 452 520 41,000  Level Minneapolis Center
10:52PM 40.2808 -98.4689 92° East 455 524 41,000  Level Minneapolis Center
10:54PM 40.2714 -98.1325 92° East 462 532 41,000  Level Minneapolis Center
10:55PM 40.2664 -97.9639 92° East 464 534 41,000  Level Minneapolis Center
10:56PM 40.2617 -97.7986 92° East 459 528 41,000  Level Minneapolis Center
10:57PM 40.2558 -97.6314 93° East 459 528 41,000  Level Minneapolis Center
10:58PM 40.2500 -97.4653 93° East 460 529 41,000  Level Minneapolis Center
10:59PM 40.2450 -97.2908 92° East 457 526 41,000  Level Minneapolis Center
11:05PM 40.2130 -96.4790 92° East 465 535 41,000  Level FlightAware
11:06PM 40.2040 -96.2780 93° East 464 534 41,000  Level FlightAware
11:07PM 40.2000 -96.1820 93° East 464 534 41,000  Level FlightAware
11:07PM 40.1960 -96.0870 93° East 464 534 41,000  Level FlightAware
11:08PM 40.2430 -95.9640 63° Northeast 467 537 41,000  Level FlightAware
11:09PM 40.2710 -95.8000 77° East 466 536 41,000  Level FlightAware
11:11PM 40.3080 -95.5860 77° East 465 535 41,000  Level FlightAware
11:11PM 40.3260 -95.4770 78° East 465 535 41,000  Level FlightAware
11:12PM 40.3880 -95.1100 77° East 459 528 41,000  Level FlightAware
11:13PM 40.4060 -95.0010 78° East 459 528 41,000  Level FlightAware
11:14PM 40.4260 -94.8750 78° East 461 531 41,000  Level FlightAware
11:14PM 40.4470 -94.7480 78° East 462 532 41,000  Level FlightAware
11:15PM 40.4680 -94.6180 78° East 465 535 41,000  Level FlightAware
11:16PM 40.4880 -94.4900 78° East 469 540 41,000  Level FlightAware
11:17PM 40.5060 -94.3760 78° East 472 543 41,000  Level FlightAware
11:17PM 40.5270 -94.2470 78° East 473 544 41,000  Level FlightAware
11:18PM 40.5440 -94.1400 78° East 474 545 41,000  Level FlightAware
11:19PM 40.5590 -94.0390 79° East 473 544 41,000  Level FlightAware
11:19PM 40.5840 -93.8820 78° East 474 545 41,000  Level FlightAware
11:20PM 40.6010 -93.7710 79° East 472 543 41,000  Level FlightAware
11:21PM 40.6240 -93.6190 79° East 468 539 41,000  Level FlightAware
11:22PM 40.6430 -93.4910 79° East 468 539 41,000  Level FlightAware
11:22PM 40.6600 -93.3800 79° East 466 536 41,000  Level FlightAware
11:23PM 40.6730 -93.2880 79° East 465 535 41,000  Level FlightAware
11:24PM 40.6940 -93.1470 79° East 463 533 41,000  Level FlightAware
11:25PM 40.7110 -93.0350 79° East 461 531 41,000  Level FlightAware
11:25PM 40.7270 -92.9260 79° East 459 528 41,000  Level FlightAware
11:26PM 40.7450 -92.8000 79° East 457 526 41,000  Level FlightAware
11:27PM 40.7600 -92.6940 79° East 456 525 41,000  Level FlightAware
11:27PM 40.7780 -92.5680 79° East 458 527 41,000  Level FlightAware
11:28PM 40.7940 -92.4570 79° East 459 528 41,000  Level FlightAware
11:29PM 40.8100 -92.3380 80° East 459 528 41,000  Level FlightAware
11:29PM 40.8250 -92.2290 80° East 459 528 41,000  Level FlightAware
11:30PM 40.8410 -92.1180 79° East 458 527 41,000 -660 Level FlightAware
11:31PM 40.8580 -91.9900 80° East 460 529 40,100 -1,320 Descending FlightAware
11:32PM 40.8730 -91.8800 80° East 462 532 39,200 -1,320 Descending FlightAware
11:32PM 40.8860 -91.7880 79° East 460 529 38,500 -1,320 Descending FlightAware
11:33PM 40.9040 -91.6470 80° East 461 531 37,400 -1,380 Descending FlightAware
11:34PM 40.9190 -91.5340 80° East 466 536 36,500 -1,440 Descending FlightAware
11:34PM 40.9370 -91.4040 80° East 467 537 35,400 -1,320 Descending FlightAware
11:35PM 40.9510 -91.2970 80° East 469 540 34,700 -1,140 Descending FlightAware
11:36PM 40.9660 -91.1790 80° East 470 541 33,900 -1,020 Descending FlightAware
11:36PM 40.9820 -91.0540 80° East 471 542 33,300 -660 Descending FlightAware
11:37PM 40.9970 -90.9390 80° East 475 547 33,000 -240 Descending FlightAware
11:38PM 41.0130 -90.8100 81° East 473 544 33,000  Level FlightAware
11:39PM 41.0270 -90.6950 81° East 472 543 33,000  Level FlightAware
11:39PM 41.0430 -90.5700 80° East 470 541 33,000  Level FlightAware
11:40PM 41.0570 -90.4560 81° East 467 537 33,000  Level FlightAware
11:41PM 41.0720 -90.3300 81° East 467 537 33,000  Level FlightAware
11:41PM 41.0860 -90.2160 81° East 467 537 33,000  Level FlightAware
11:42PM 41.0990 -90.1070 81° East 468 539 33,000  Level FlightAware
11:43PM 41.1150 -89.9750 81° East 469 540 33,000  Level FlightAware
11:43PM 41.1250 -89.8870 81° East 470 541 33,000 -1,500 Level FlightAware
11:44PM 41.1410 -89.7510 81° East 469 540 31,000 -3,240 Descending FlightAware
11:45PM 41.1570 -89.6220 81° East 473 544 28,200 -3,480 Descending FlightAware
11:46PM 41.1910 -89.5120 68° East 467 537 26,100 -2,940 Descending FlightAware
11:46PM 41.2340 -89.4040 62° Northeast 451 519 24,100 -2,700 Descending FlightAware
11:47PM 41.2730 -89.3080 62° Northeast 438 504 22,300 -2,700 Descending FlightAware
11:48PM 41.3110 -89.2150 61° Northeast 424 488 20,500 -2,640 Descending FlightAware
11:48PM 41.3530 -89.1090 62° Northeast 409 471 18,600 -2,520 Descending FlightAware
11:49PM 41.3860 -89.0250 62° Northeast 400 460 17,000 -2,520 Descending FlightAware
11:50PM 41.4210 -88.9390 61° Northeast 389 448 15,300 -2,400 Descending FlightAware
11:50PM 41.4580 -88.8470 62° Northeast 378 435 13,600 -2,340 Descending FlightAware
11:51PM 41.4900 -88.7640 63° Northeast 369 425 12,000 -1,860 Descending FlightAware
11:52PM 41.5270 -88.6710 62° Northeast 373 429 11,000 -720 Descending FlightAware
11:53PM 41.5590 -88.5890 62° Northeast 377 434 11,000  Level FlightAware
11:53PM 41.5950 -88.4980 62° Northeast 378 435 11,000  Level FlightAware
11:54PM 41.6350 -88.4230 54° Northeast 372 428 11,000  Level FlightAware
11:55PM 41.6760 -88.3520 52° Northeast 354 407 11,000 -360 Level FlightAware
11:55PM 41.7200 -88.2770 52° Northeast 314 361 10,500 -1,080 Descending FlightAware
11:56PM 41.7460 -88.2480 40° Northeast 318 366 9,800 -1,680 Descending FlightAware
11:56PM 41.7850 -88.2200 28° Northeast 319 367 9,000 -1,740 Descending FlightAware
11:57PM 41.8060 -88.2050 28° Northeast 319 367 8,500 -1,680 Descending FlightAware
11:57PM 41.8380 -88.1830 27° Northeast 317 365 7,900 -1,320 Descending FlightAware
11:57PM 41.8760 -88.1560 28° Northeast 307 353 7,300 -1,020 Descending FlightAware
11:58PM 41.9070 -88.1340 28° Northeast 295 339 7,000 -360 Descending FlightAware
11:58PM 41.9400 -88.1010 37° Northeast 292 336 7,000  Level FlightAware
11:59PM 41.9720 -88.0690 37° Northeast 286 329 7,000  Level FlightAware
11:59PM 41.9980 -88.0420 38° Northeast 284 327 7,000 -180 Level FlightAware
12:00AM 42.0140 -88.0260 37° Northeast 282 325 6,900 -960 Descending FlightAware
12:00AM 42.0450 -87.9940 37° Northeast 270 311 6,300 -1,320 Descending FlightAware
12:00AM 42.0670 -87.9710 38° Northeast 264 304 5,700 -1,800 Descending FlightAware
12:01AM 42.0970 -87.9390 38° Northeast 271 312 4,700 -1,440 Descending FlightAware
12:01AM 42.1270 -87.9100 36° Northeast 249 287 4,300 -780 Descending FlightAware
12:02AM 42.1490 -87.8870 38° Northeast 235 270 4,000 -480 Descending FlightAware
12:02AM 42.1550 -87.8690 66° East 218 251 4,000  Level FlightAware
12:03AM 42.1490 -87.8400 106° East 193 222 4,000  Level FlightAware
12:03AM 42.1360 -87.8080 119° Southeast 192 221 4,000 -420 Level FlightAware
12:03AM 42.1280 -87.7950 130° Southeast 174 200 3,700 -1,440 Descending FlightAware
12:03AM 42.1210 -87.7920 162° South 161 185 3,400 -780 Descending FlightAware
12:04AM 42.0930 -87.8010 193° South 146 168 3,000 -720 Descending FlightAware
12:05AM 42.0720 -87.8140 205° Southwest 144 166 2,500 -840 Descending FlightAware
12:05AM 42.0580 -87.8300 220° Southwest 129 148 2,200 -660 Descending FlightAware
12:06AM 42.0470 -87.8410 217° Southwest 114 131 1,900 -720 Descending FlightAware
12:06AM 42.0390 -87.8510 223° Southwest 119 137 1,700 -780 Descending FlightAware
12:07AM 42.0230 -87.8690 220° Southwest 121 139 1,200 -660 Descending FlightAware
12:07AM 42.0110 -87.8820 219° Southwest 128 147 1,000 -600 Descending FlightAware
12:07AM 41.9990 -87.8950 219° Southwest 133 153 700 -720 Descending FlightAware